Avawam, Kentucky
Current Conditions -  °F | °C
As of 8:53 AM on Monday 24 Nov 2014 (Local Time) from KJKL Reporting Station
Broken Clouds Broken Clouds  
Wind Chill: 62°   Ceiling: 5500
Heat Index: 62°   Visibility: 10mi
Dew Point: 48°   Wind: 7mph
Humidity: 60%   Direction: NA
Pressure: 29.54"   Gusts: NA
Location:  37.22°N, 83.27°W
Report Text: KJKL 241353Z AUTO VRB06KT 10SM FEW048 BKN055 BKN070 17/09 A2954 RMK AO2 SLP996 T01670089
Loading
Personal Weather Stations






























Interactive Weather Map New forecast layout! Learn more

10-Day Weather Forecast

Advertisements
Track Severe Weather on mobile